sensor_id;sensor_type;location;lat;lon;timestamp;temperature;humidity
35531;DHT22;21637;53.352;-6.356;2024-03-23T00:56:14;4.70;99.90
35531;DHT22;21637;53.352;-6.356;2024-03-23T00:58:40;4.70;99.90
35531;DHT22;21637;53.352;-6.356;2024-03-23T01:01:06;4.70;99.90
35531;DHT22;21637;53.352;-6.356;2024-03-23T01:03:32;4.70;99.90
35531;DHT22;21637;53.352;-6.356;2024-03-23T01:06:01;4.70;99.90
35531;DHT22;21637;53.352;-6.356;2024-03-23T01:08:27;4.70;99.90
35531;DHT22;21637;53.352;-6.356;2024-03-23T01:11:00;4.70;99.90
35531;DHT22;21637;53.352;-6.356;2024-03-23T01:13:26;4.70;99.90
35531;DHT22;21637;53.352;-6.356;2024-03-23T01:15:53;4.70;99.90
35531;DHT22;21637;53.352;-6.356;2024-03-23T01:18:20;4.70;99.90
35531;DHT22;21637;53.352;-6.356;2024-03-23T01:20:46;4.70;99.90
35531;DHT22;21637;53.352;-6.356;2024-03-23T01:23:13;4.70;99.90
35531;DHT22;21637;53.352;-6.356;2024-03-23T01:25:39;4.80;99.90
35531;DHT22;21637;53.352;-6.356;2024-03-23T01:28:05;4.80;99.90
35531;DHT22;21637;53.352;-6.356;2024-03-23T01:30:34;4.80;99.90
35531;DHT22;21637;53.352;-6.356;2024-03-23T01:33:01;4.80;99.90
35531;DHT22;21637;53.352;-6.356;2024-03-23T01:35:26;4.80;99.90
35531;DHT22;21637;53.352;-6.356;2024-03-23T01:37:52;4.80;99.90
35531;DHT22;21637;53.352;-6.356;2024-03-23T01:40:18;4.80;99.90
35531;DHT22;21637;53.352;-6.356;2024-03-23T01:43:04;4.70;99.90
35531;DHT22;21637;53.352;-6.356;2024-03-23T01:45:31;4.70;99.90
35531;DHT22;21637;53.352;-6.356;2024-03-23T01:47:58;4.70;99.90
35531;DHT22;21637;53.352;-6.356;2024-03-23T01:50:25;4.70;99.90
35531;DHT22;21637;53.352;-6.356;2024-03-23T01:52:51;4.70;99.90
35531;DHT22;21637;53.352;-6.356;2024-03-23T01:55:17;4.70;99.90
35531;DHT22;21637;53.352;-6.356;2024-03-23T01:57:43;4.70;99.90
35531;DHT22;21637;53.352;-6.356;2024-03-23T02:00:09;4.70;99.90
35531;DHT22;21637;53.352;-6.356;2024-03-23T02:02:44;4.70;99.90
35531;DHT22;21637;53.352;-6.356;2024-03-23T02:05:10;4.80;99.90
35531;DHT22;21637;53.352;-6.356;2024-03-23T02:07:38;4.80;99.90
35531;DHT22;21637;53.352;-6.356;2024-03-23T02:10:04;4.80;99.90
35531;DHT22;21637;53.352;-6.356;2024-03-23T02:12:31;4.90;99.90
35531;DHT22;21637;53.352;-6.356;2024-03-23T02:14:56;4.90;99.90
35531;DHT22;21637;53.352;-6.356;2024-03-23T02:17:22;4.90;99.90
35531;DHT22;21637;53.352;-6.356;2024-03-23T02:19:48;5.00;99.90
35531;DHT22;21637;53.352;-6.356;2024-03-23T02:22:14;5.00;99.90
35531;DHT22;21637;53.352;-6.356;2024-03-23T02:24:41;4.90;99.90
35531;DHT22;21637;53.352;-6.356;2024-03-23T02:27:07;5.00;99.90
35531;DHT22;21637;53.352;-6.356;2024-03-23T02:29:33;4.90;99.90
35531;DHT22;21637;53.352;-6.356;2024-03-23T02:31:58;4.90;99.90
35531;DHT22;21637;53.352;-6.356;2024-03-23T02:34:24;4.90;99.90
35531;DHT22;21637;53.352;-6.356;2024-03-23T02:36:50;4.90;99.90
35531;DHT22;21637;53.352;-6.356;2024-03-23T02:39:16;4.90;99.90
35531;DHT22;21637;53.352;-6.356;2024-03-23T02:41:41;5.00;99.90
35531;DHT22;21637;53.352;-6.356;2024-03-23T02:44:07;5.00;99.90
35531;DHT22;21637;53.352;-6.356;2024-03-23T02:46:33;5.00;99.90
35531;DHT22;21637;53.352;-6.356;2024-03-23T02:48:59;5.00;99.90
35531;DHT22;21637;53.352;-6.356;2024-03-23T02:51:24;5.00;99.90
35531;DHT22;21637;53.352;-6.356;2024-03-23T02:53:50;5.00;99.90
35531;DHT22;21637;53.352;-6.356;2024-03-23T02:56:16;5.00;99.90
35531;DHT22;21637;53.352;-6.356;2024-03-23T02:58:45;5.10;99.90
35531;DHT22;21637;53.352;-6.356;2024-03-23T03:01:10;5.10;99.90
35531;DHT22;21637;53.352;-6.356;2024-03-23T03:03:36;5.10;99.90
35531;DHT22;21637;53.352;-6.356;2024-03-23T03:06:02;5.20;99.90
35531;DHT22;21637;53.352;-6.356;2024-03-23T03:08:28;5.20;99.90
35531;DHT22;21637;53.352;-6.356;2024-03-23T03:10:53;5.30;99.90
35531;DHT22;21637;53.352;-6.356;2024-03-23T03:13:19;5.30;99.90
35531;DHT22;21637;53.352;-6.356;2024-03-23T03:15:46;5.30;99.90
35531;DHT22;21637;53.352;-6.356;2024-03-23T03:18:12;5.30;99.90
35531;DHT22;21637;53.352;-6.356;2024-03-23T03:20:40;5.30;99.90
35531;DHT22;21637;53.352;-6.356;2024-03-23T03:23:07;5.20;99.90
35531;DHT22;21637;53.352;-6.356;2024-03-23T03:25:33;5.20;99.90
35531;DHT22;21637;53.352;-6.356;2024-03-23T03:27:59;5.10;99.90
35531;DHT22;21637;53.352;-6.356;2024-03-23T03:30:24;5.20;99.90
35531;DHT22;21637;53.352;-6.356;2024-03-23T03:32:53;5.20;99.90
35531;DHT22;21637;53.352;-6.356;2024-03-23T03:35:18;5.20;99.90
35531;DHT22;21637;53.352;-6.356;2024-03-23T03:37:44;5.20;99.90
35531;DHT22;21637;53.352;-6.356;2024-03-23T03:40:11;5.20;99.90
35531;DHT22;21637;53.352;-6.356;2024-03-23T03:42:36;5.20;99.90
35531;DHT22;21637;53.352;-6.356;2024-03-23T03:45:03;5.20;99.90
35531;DHT22;21637;53.352;-6.356;2024-03-23T03:47:30;5.20;99.90
35531;DHT22;21637;53.352;-6.356;2024-03-23T03:49:56;5.30;99.90
35531;DHT22;21637;53.352;-6.356;2024-03-23T03:52:21;5.30;99.90
35531;DHT22;21637;53.352;-6.356;2024-03-23T03:54:47;5.20;99.90
35531;DHT22;21637;53.352;-6.356;2024-03-23T03:57:13;5.30;99.90
35531;DHT22;21637;53.352;-6.356;2024-03-23T03:59:39;5.20;99.90
35531;DHT22;21637;53.352;-6.356;2024-03-23T04:02:04;5.30;99.90
35531;DHT22;21637;53.352;-6.356;2024-03-23T04:04:30;5.20;99.90
35531;DHT22;21637;53.352;-6.356;2024-03-23T04:07:02;5.20;99.90
35531;DHT22;21637;53.352;-6.356;2024-03-23T04:09:28;5.20;99.90
35531;DHT22;21637;53.352;-6.356;2024-03-23T04:11:55;5.10;99.90
35531;DHT22;21637;53.352;-6.356;2024-03-23T04:14:21;5.10;99.90
35531;DHT22;21637;53.352;-6.356;2024-03-23T04:16:47;5.10;99.90
35531;DHT22;21637;53.352;-6.356;2024-03-23T04:19:12;5.10;99.90
35531;DHT22;21637;53.352;-6.356;2024-03-23T04:21:38;5.20;99.90
35531;DHT22;21637;53.352;-6.356;2024-03-23T04:24:04;5.20;99.90
35531;DHT22;21637;53.352;-6.356;2024-03-23T04:26:30;5.20;99.90
35531;DHT22;21637;53.352;-6.356;2024-03-23T04:29:05;5.20;99.90
35531;DHT22;21637;53.352;-6.356;2024-03-23T04:31:31;5.30;99.90
35531;DHT22;21637;53.352;-6.356;2024-03-23T04:34:00;5.30;99.90
35531;DHT22;21637;53.352;-6.356;2024-03-23T04:36:26;5.20;99.90
35531;DHT22;21637;53.352;-6.356;2024-03-23T04:38:51;5.10;99.90
35531;DHT22;21637;53.352;-6.356;2024-03-23T04:41:18;5.10;99.90
35531;DHT22;21637;53.352;-6.356;2024-03-23T04:43:43;5.10;99.90
35531;DHT22;21637;53.352;-6.356;2024-03-23T04:46:09;5.10;99.90
35531;DHT22;21637;53.352;-6.356;2024-03-23T04:48:35;5.10;99.90
35531;DHT22;21637;53.352;-6.356;2024-03-23T04:51:02;5.10;99.90
35531;DHT22;21637;53.352;-6.356;2024-03-23T04:53:27;5.10;99.90
35531;DHT22;21637;53.352;-6.356;2024-03-23T04:55:56;5.10;99.90
35531;DHT22;21637;53.352;-6.356;2024-03-23T04:58:22;5.10;99.90
35531;DHT22;21637;53.352;-6.356;2024-03-23T05:00:56;5.20;99.90
35531;DHT22;21637;53.352;-6.356;2024-03-23T05:03:22;5.20;99.90
35531;DHT22;21637;53.352;-6.356;2024-03-23T05:05:48;5.10;99.90
35531;DHT22;21637;53.352;-6.356;2024-03-23T05:08:15;5.10;99.90
35531;DHT22;21637;53.352;-6.356;2024-03-23T05:10:42;5.10;99.90
35531;DHT22;21637;53.352;-6.356;2024-03-23T05:13:07;5.10;99.90
35531;DHT22;21637;53.352;-6.356;2024-03-23T05:15:33;5.10;99.90
35531;DHT22;21637;53.352;-6.356;2024-03-23T05:17:59;5.10;99.90
35531;DHT22;21637;53.352;-6.356;2024-03-23T05:20:25;5.10;99.90
35531;DHT22;21637;53.352;-6.356;2024-03-23T05:22:50;5.10;99.90
35531;DHT22;21637;53.352;-6.356;2024-03-23T05:25:16;5.10;99.90
35531;DHT22;21637;53.352;-6.356;2024-03-23T05:27:42;5.20;99.90
35531;DHT22;21637;53.352;-6.356;2024-03-23T05:30:07;5.20;99.90
35531;DHT22;21637;53.352;-6.356;2024-03-23T05:32:34;5.20;99.90
35531;DHT22;21637;53.352;-6.356;2024-03-23T05:35:00;5.30;99.90
35531;DHT22;21637;53.352;-6.356;2024-03-23T05:37:26;5.30;99.90
35531;DHT22;21637;53.352;-6.356;2024-03-23T05:39:52;5.30;99.90
35531;DHT22;21637;53.352;-6.356;2024-03-23T05:42:18;5.30;99.90
35531;DHT22;21637;53.352;-6.356;2024-03-23T05:44:47;5.30;99.90
35531;DHT22;21637;53.352;-6.356;2024-03-23T05:47:13;5.30;99.90
35531;DHT22;21637;53.352;-6.356;2024-03-23T05:49:42;5.40;99.90
35531;DHT22;21637;53.352;-6.356;2024-03-23T05:52:11;5.40;99.90
35531;DHT22;21637;53.352;-6.356;2024-03-23T05:54:36;5.50;99.90
35531;DHT22;21637;53.352;-6.356;2024-03-23T05:57:03;5.40;99.90
35531;DHT22;21637;53.352;-6.356;2024-03-23T05:59:29;5.50;99.90
35531;DHT22;21637;53.352;-6.356;2024-03-23T06:01:55;5.50;99.90
35531;DHT22;21637;53.352;-6.356;2024-03-23T06:04:20;5.50;99.90
35531;DHT22;21637;53.352;-6.356;2024-03-23T06:06:49;5.50;99.90
35531;DHT22;21637;53.352;-6.356;2024-03-23T06:09:14;5.50;99.90
35531;DHT22;21637;53.352;-6.356;2024-03-23T06:11:40;5.50;99.90
35531;DHT22;21637;53.352;-6.356;2024-03-23T06:14:06;5.40;99.90
35531;DHT22;21637;53.352;-6.356;2024-03-23T06:16:31;5.40;99.90
35531;DHT22;21637;53.352;-6.356;2024-03-23T06:18:57;5.40;99.90
35531;DHT22;21637;53.352;-6.356;2024-03-23T06:21:24;5.50;99.90
35531;DHT22;21637;53.352;-6.356;2024-03-23T06:23:53;5.40;99.90
35531;DHT22;21637;53.352;-6.356;2024-03-23T06:26:19;5.40;99.90
35531;DHT22;21637;53.352;-6.356;2024-03-23T06:28:46;5.50;99.90
35531;DHT22;21637;53.352;-6.356;2024-03-23T06:31:12;5.50;99.90
35531;DHT22;21637;53.352;-6.356;2024-03-23T06:33:39;5.50;99.90
35531;DHT22;21637;53.352;-6.356;2024-03-23T06:36:07;5.50;99.90
35531;DHT22;21637;53.352;-6.356;2024-03-23T06:38:34;5.50;99.90
35531;DHT22;21637;53.352;-6.356;2024-03-23T06:41:02;5.50;99.90
35531;DHT22;21637;53.352;-6.356;2024-03-23T06:43:28;5.50;99.90
35531;DHT22;21637;53.352;-6.356;2024-03-23T06:45:54;5.50;99.90
35531;DHT22;21637;53.352;-6.356;2024-03-23T06:48:20;5.50;99.90
35531;DHT22;21637;53.352;-6.356;2024-03-23T06:50:47;5.40;99.90
35531;DHT22;21637;53.352;-6.356;2024-03-23T06:53:13;5.40;99.90
35531;DHT22;21637;53.352;-6.356;2024-03-23T06:55:39;5.40;99.90
35531;DHT22;21637;53.352;-6.356;2024-03-23T06:58:05;5.50;99.90
35531;DHT22;21637;53.352;-6.356;2024-03-23T07:00:31;5.40;99.90
35531;DHT22;21637;53.352;-6.356;2024-03-23T07:02:58;5.40;99.90
35531;DHT22;21637;53.352;-6.356;2024-03-23T07:05:24;5.40;99.90
35531;DHT22;21637;53.352;-6.356;2024-03-23T07:07:49;5.40;99.90
35531;DHT22;21637;53.352;-6.356;2024-03-23T07:10:15;5.40;99.90
35531;DHT22;21637;53.352;-6.356;2024-03-23T07:12:41;5.40;99.90
35531;DHT22;21637;53.352;-6.356;2024-03-23T07:15:07;5.50;99.90
35531;DHT22;21637;53.352;-6.356;2024-03-23T07:17:34;5.50;99.90
35531;DHT22;21637;53.352;-6.356;2024-03-23T07:20:01;5.50;99.90
35531;DHT22;21637;53.352;-6.356;2024-03-23T07:22:30;5.60;99.90
35531;DHT22;21637;53.352;-6.356;2024-03-23T07:24:55;5.60;99.90
35531;DHT22;21637;53.352;-6.356;2024-03-23T07:27:21;5.60;99.90
35531;DHT22;21637;53.352;-6.356;2024-03-23T07:29:49;5.60;99.90
35531;DHT22;21637;53.352;-6.356;2024-03-23T07:32:15;5.70;99.90
35531;DHT22;21637;53.352;-6.356;2024-03-23T07:34:41;5.70;99.90
35531;DHT22;21637;53.352;-6.356;2024-03-23T07:37:08;5.70;99.90
35531;DHT22;21637;53.352;-6.356;2024-03-23T07:39:34;5.70;99.90
35531;DHT22;21637;53.352;-6.356;2024-03-23T07:42:00;5.70;99.90
35531;DHT22;21637;53.352;-6.356;2024-03-23T07:44:25;5.70;99.90
35531;DHT22;21637;53.352;-6.356;2024-03-23T07:46:51;5.80;99.90
35531;DHT22;21637;53.352;-6.356;2024-03-23T07:49:17;5.80;99.90
35531;DHT22;21637;53.352;-6.356;2024-03-23T07:51:43;5.80;99.90
35531;DHT22;21637;53.352;-6.356;2024-03-23T07:54:10;5.80;99.90
35531;DHT22;21637;53.352;-6.356;2024-03-23T07:56:36;5.90;99.90
35531;DHT22;21637;53.352;-6.356;2024-03-23T07:59:01;5.90;99.90
35531;DHT22;21637;53.352;-6.356;2024-03-23T08:01:29;5.90;99.90
35531;DHT22;21637;53.352;-6.356;2024-03-23T08:03:55;5.90;99.90
35531;DHT22;21637;53.352;-6.356;2024-03-23T08:06:21;5.90;99.90
35531;DHT22;21637;53.352;-6.356;2024-03-23T08:08:54;5.90;99.90
35531;DHT22;21637;53.352;-6.356;2024-03-23T08:11:30;5.80;99.90
35531;DHT22;21637;53.352;-6.356;2024-03-23T08:13:56;5.90;99.90
35531;DHT22;21637;53.352;-6.356;2024-03-23T08:16:23;5.90;99.90
35531;DHT22;21637;53.352;-6.356;2024-03-23T08:18:51;6.00;99.90
35531;DHT22;21637;53.352;-6.356;2024-03-23T08:21:17;6.00;99.90
35531;DHT22;21637;53.352;-6.356;2024-03-23T08:23:43;6.00;99.90
35531;DHT22;21637;53.352;-6.356;2024-03-23T08:26:11;6.00;99.90
35531;DHT22;21637;53.352;-6.356;2024-03-23T08:28:37;6.00;99.90
35531;DHT22;21637;53.352;-6.356;2024-03-23T08:31:10;6.10;99.90
35531;DHT22;21637;53.352;-6.356;2024-03-23T08:33:36;6.10;99.90
35531;DHT22;21637;53.352;-6.356;2024-03-23T08:36:06;6.10;99.90
35531;DHT22;21637;53.352;-6.356;2024-03-23T08:38:33;6.20;99.90
35531;DHT22;21637;53.352;-6.356;2024-03-23T08:41:02;6.30;99.90
35531;DHT22;21637;53.352;-6.356;2024-03-23T08:43:29;6.30;99.90
35531;DHT22;21637;53.352;-6.356;2024-03-23T08:46:14;6.40;99.90
35531;DHT22;21637;53.352;-6.356;2024-03-23T08:48:43;6.40;99.90
35531;DHT22;21637;53.352;-6.356;2024-03-23T08:51:10;6.30;99.90
35531;DHT22;21637;53.352;-6.356;2024-03-23T08:53:36;6.30;99.90
35531;DHT22;21637;53.352;-6.356;2024-03-23T08:56:03;6.30;99.90
35531;DHT22;21637;53.352;-6.356;2024-03-23T08:58:30;6.30;99.90
35531;DHT22;21637;53.352;-6.356;2024-03-23T09:01:02;6.30;99.90
35531;DHT22;21637;53.352;-6.356;2024-03-23T09:03:28;6.40;99.90
35531;DHT22;21637;53.352;-6.356;2024-03-23T09:05:54;6.40;99.90
35531;DHT22;21637;53.352;-6.356;2024-03-23T09:08:21;6.40;99.90
35531;DHT22;21637;53.352;-6.356;2024-03-23T09:10:47;6.40;99.90
35531;DHT22;21637;53.352;-6.356;2024-03-23T09:13:13;6.40;99.90
35531;DHT22;21637;53.352;-6.356;2024-03-23T09:15:49;6.50;99.90
35531;DHT22;21637;53.352;-6.356;2024-03-23T09:18:15;6.60;99.90
35531;DHT22;21637;53.352;-6.356;2024-03-23T09:20:41;6.60;99.90
35531;DHT22;21637;53.352;-6.356;2024-03-23T09:23:07;6.60;99.90
35531;DHT22;21637;53.352;-6.356;2024-03-23T09:25:39;6.70;99.90
35531;DHT22;21637;53.352;-6.356;2024-03-23T09:28:06;6.90;99.90
35531;DHT22;21637;53.352;-6.356;2024-03-23T09:30:32;7.10;99.90
35531;DHT22;21637;53.352;-6.356;2024-03-23T09:32:59;7.30;99.90
35531;DHT22;21637;53.352;-6.356;2024-03-23T09:35:24;7.40;99.90
35531;DHT22;21637;53.352;-6.356;2024-03-23T09:37:50;7.50;99.90
35531;DHT22;21637;53.352;-6.356;2024-03-23T09:40:16;7.50;99.90
35531;DHT22;21637;53.352;-6.356;2024-03-23T09:42:42;7.70;99.90
35531;DHT22;21637;53.352;-6.356;2024-03-23T09:45:19;7.70;99.90
35531;DHT22;21637;53.352;-6.356;2024-03-23T09:47:46;7.60;99.90
35531;DHT22;21637;53.352;-6.356;2024-03-23T09:50:13;7.50;99.90
35531;DHT22;21637;53.352;-6.356;2024-03-23T09:52:40;7.40;99.90
35531;DHT22;21637;53.352;-6.356;2024-03-23T09:55:08;7.10;99.90
35531;DHT22;21637;53.352;-6.356;2024-03-23T09:57:34;6.80;99.90
35531;DHT22;21637;53.352;-6.356;2024-03-23T10:00:00;6.60;99.90
35531;DHT22;21637;53.352;-6.356;2024-03-23T10:02:26;6.50;99.90
35531;DHT22;21637;53.352;-6.356;2024-03-23T10:04:51;6.40;99.90
35531;DHT22;21637;53.352;-6.356;2024-03-23T10:07:21;6.50;99.90
35531;DHT22;21637;53.352;-6.356;2024-03-23T10:09:49;6.60;99.90
35531;DHT22;21637;53.352;-6.356;2024-03-23T10:12:19;6.80;99.90
35531;DHT22;21637;53.352;-6.356;2024-03-23T10:14:45;7.00;99.90
35531;DHT22;21637;53.352;-6.356;2024-03-23T10:17:20;7.20;99.90
35531;DHT22;21637;53.352;-6.356;2024-03-23T10:19:50;7.10;99.90
35531;DHT22;21637;53.352;-6.356;2024-03-23T10:22:21;7.20;99.90
35531;DHT22;21637;53.352;-6.356;2024-03-23T10:24:48;7.30;99.90
35531;DHT22;21637;53.352;-6.356;2024-03-23T10:27:18;7.30;99.90
35531;DHT22;21637;53.352;-6.356;2024-03-23T10:29:48;7.30;99.90
35531;DHT22;21637;53.352;-6.356;2024-03-23T10:32:16;7.40;99.90
35531;DHT22;21637;53.352;-6.356;2024-03-23T10:34:43;7.50;99.90
35531;DHT22;21637;53.352;-6.356;2024-03-23T10:37:09;7.70;99.90
35531;DHT22;21637;53.352;-6.356;2024-03-23T10:39:36;7.90;99.90
35531;DHT22;21637;53.352;-6.356;2024-03-23T10:42:04;8.00;99.90
35531;DHT22;21637;53.352;-6.356;2024-03-23T10:44:30;8.10;99.90
35531;DHT22;21637;53.352;-6.356;2024-03-23T10:47:01;8.30;99.90
35531;DHT22;21637;53.352;-6.356;2024-03-23T10:49:31;8.50;99.90
35531;DHT22;21637;53.352;-6.356;2024-03-23T10:52:05;8.60;99.90
35531;DHT22;21637;53.352;-6.356;2024-03-23T10:54:32;8.60;99.90
35531;DHT22;21637;53.352;-6.356;2024-03-23T10:57:14;8.60;99.90
35531;DHT22;21637;53.352;-6.356;2024-03-23T10:59:41;8.60;99.90
35531;DHT22;21637;53.352;-6.356;2024-03-23T11:02:07;8.70;99.90
35531;DHT22;21637;53.352;-6.356;2024-03-23T11:04:43;8.70;99.90
35531;DHT22;21637;53.352;-6.356;2024-03-23T11:09:53;8.90;99.90
35531;DHT22;21637;53.352;-6.356;2024-03-23T11:15:05;8.90;99.90
35531;DHT22;21637;53.352;-6.356;2024-03-23T11:17:32;9.00;99.90
35531;DHT22;21637;53.352;-6.356;2024-03-23T11:20:03;9.00;99.90
35531;DHT22;21637;53.352;-6.356;2024-03-23T11:25:22;9.00;99.90
35531;DHT22;21637;53.352;-6.356;2024-03-23T11:27:56;9.20;99.90
35531;DHT22;21637;53.352;-6.356;2024-03-23T11:30:27;9.20;99.90
35531;DHT22;21637;53.352;-6.356;2024-03-23T11:32:58;9.10;99.90
35531;DHT22;21637;53.352;-6.356;2024-03-23T11:35:38;9.10;99.90
35531;DHT22;21637;53.352;-6.356;2024-03-23T11:40:33;9.00;99.90
35531;DHT22;21637;53.352;-6.356;2024-03-23T11:43:18;8.90;99.90
35531;DHT22;21637;53.352;-6.356;2024-03-23T11:45:46;8.90;99.90
35531;DHT22;21637;53.352;-6.356;2024-03-23T11:48:19;8.80;99.90
35531;DHT22;21637;53.352;-6.356;2024-03-23T11:50:48;8.80;99.90
35531;DHT22;21637;53.352;-6.356;2024-03-23T11:53:18;8.80;99.90
35531;DHT22;21637;53.352;-6.356;2024-03-23T11:55:49;8.70;99.90
35531;DHT22;21637;53.352;-6.356;2024-03-23T11:58:16;8.80;99.90
35531;DHT22;21637;53.352;-6.356;2024-03-23T12:00:43;8.80;99.90
35531;DHT22;21637;53.352;-6.356;2024-03-23T12:03:14;8.80;99.90
35531;DHT22;21637;53.352;-6.356;2024-03-23T12:05:41;8.80;99.90
35531;DHT22;21637;53.352;-6.356;2024-03-23T12:08:23;8.80;99.90
35531;DHT22;21637;53.352;-6.356;2024-03-23T12:10:53;8.80;99.90
35531;DHT22;21637;53.352;-6.356;2024-03-23T12:13:21;8.80;99.90
35531;DHT22;21637;53.352;-6.356;2024-03-23T12:15:50;8.90;99.90
35531;DHT22;21637;53.352;-6.356;2024-03-23T12:18:17;9.00;99.90
35531;DHT22;21637;53.352;-6.356;2024-03-23T12:20:43;9.10;99.90
35531;DHT22;21637;53.352;-6.356;2024-03-23T12:23:11;9.20;99.90
35531;DHT22;21637;53.352;-6.356;2024-03-23T12:25:40;9.20;99.90
35531;DHT22;21637;53.352;-6.356;2024-03-23T12:28:06;9.30;99.90
35531;DHT22;21637;53.352;-6.356;2024-03-23T12:30:34;9.40;99.90
35531;DHT22;21637;53.352;-6.356;2024-03-23T12:33:00;9.50;99.90
35531;DHT22;21637;53.352;-6.356;2024-03-23T12:35:26;9.50;99.90
35531;DHT22;21637;53.352;-6.356;2024-03-23T12:37:51;9.60;99.90
35531;DHT22;21637;53.352;-6.356;2024-03-23T12:40:17;9.70;99.90
35531;DHT22;21637;53.352;-6.356;2024-03-23T12:42:43;9.80;99.90
35531;DHT22;21637;53.352;-6.356;2024-03-23T12:45:09;9.80;99.90
35531;DHT22;21637;53.352;-6.356;2024-03-23T12:47:34;9.90;99.90
35531;DHT22;21637;53.352;-6.356;2024-03-23T12:50:00;10.00;99.90
35531;DHT22;21637;53.352;-6.356;2024-03-23T12:52:26;10.10;99.90
35531;DHT22;21637;53.352;-6.356;2024-03-23T12:54:57;10.30;99.90
35531;DHT22;21637;53.352;-6.356;2024-03-23T12:57:26;10.30;99.90
35531;DHT22;21637;53.352;-6.356;2024-03-23T12:59:52;10.30;99.90
35531;DHT22;21637;53.352;-6.356;2024-03-23T13:02:21;10.40;99.90
35531;DHT22;21637;53.352;-6.356;2024-03-23T13:04:50;10.50;99.90
35531;DHT22;21637;53.352;-6.356;2024-03-23T13:07:16;10.60;99.90
35531;DHT22;21637;53.352;-6.356;2024-03-23T13:09:42;10.70;99.90
35531;DHT22;21637;53.352;-6.356;2024-03-23T13:12:08;10.70;99.90
35531;DHT22;21637;53.352;-6.356;2024-03-23T13:14:34;10.60;99.90
35531;DHT22;21637;53.352;-6.356;2024-03-23T13:17:01;10.50;99.90
35531;DHT22;21637;53.352;-6.356;2024-03-23T13:19:28;10.30;99.90
35531;DHT22;21637;53.352;-6.356;2024-03-23T13:21:59;9.80;99.90
35531;DHT22;21637;53.352;-6.356;2024-03-23T13:24:26;9.30;99.90
35531;DHT22;21637;53.352;-6.356;2024-03-23T13:26:52;9.10;99.90
35531;DHT22;21637;53.352;-6.356;2024-03-23T13:29:19;8.90;99.90
35531;DHT22;21637;53.352;-6.356;2024-03-23T13:31:48;8.90;99.90
35531;DHT22;21637;53.352;-6.356;2024-03-23T13:34:15;8.90;99.90
35531;DHT22;21637;53.352;-6.356;2024-03-23T13:36:50;9.00;99.90
35531;DHT22;21637;53.352;-6.356;2024-03-23T13:39:16;9.20;99.90
35531;DHT22;21637;53.352;-6.356;2024-03-23T13:41:44;9.40;99.90
35531;DHT22;21637;53.352;-6.356;2024-03-23T13:44:11;9.60;99.90
35531;DHT22;21637;53.352;-6.356;2024-03-23T13:46:38;9.80;99.90
35531;DHT22;21637;53.352;-6.356;2024-03-23T13:49:05;9.90;99.90
35531;DHT22;21637;53.352;-6.356;2024-03-23T13:51:31;10.10;99.90
35531;DHT22;21637;53.352;-6.356;2024-03-23T13:53:57;10.10;99.90
35531;DHT22;21637;53.352;-6.356;2024-03-23T13:56:25;10.10;99.90
35531;DHT22;21637;53.352;-6.356;2024-03-23T13:58:51;10.20;99.90
35531;DHT22;21637;53.352;-6.356;2024-03-23T14:01:17;10.10;99.90
35531;DHT22;21637;53.352;-6.356;2024-03-23T14:03:43;10.10;99.90
35531;DHT22;21637;53.352;-6.356;2024-03-23T14:06:10;10.20;99.90
35531;DHT22;21637;53.352;-6.356;2024-03-23T14:08:37;10.10;99.90
35531;DHT22;21637;53.352;-6.356;2024-03-23T14:11:05;10.00;99.90
35531;DHT22;21637;53.352;-6.356;2024-03-23T14:13:31;10.00;99.90
35531;DHT22;21637;53.352;-6.356;2024-03-23T14:15:57;10.10;99.90
35531;DHT22;21637;53.352;-6.356;2024-03-23T14:18:23;10.20;99.90
35531;DHT22;21637;53.352;-6.356;2024-03-23T14:20:50;10.20;99.90
35531;DHT22;21637;53.352;-6.356;2024-03-23T14:23:16;10.30;99.90
35531;DHT22;21637;53.352;-6.356;2024-03-23T14:25:42;10.30;99.90
35531;DHT22;21637;53.352;-6.356;2024-03-23T14:28:08;10.30;99.90
35531;DHT22;21637;53.352;-6.356;2024-03-23T14:30:40;10.30;99.90
35531;DHT22;21637;53.352;-6.356;2024-03-23T14:33:06;10.30;99.90
35531;DHT22;21637;53.352;-6.356;2024-03-23T14:35:32;10.40;99.90
35531;DHT22;21637;53.352;-6.356;2024-03-23T14:37:58;10.40;99.90
35531;DHT22;21637;53.352;-6.356;2024-03-23T14:40:24;10.40;99.90
35531;DHT22;21637;53.352;-6.356;2024-03-23T14:42:56;10.40;99.90
35531;DHT22;21637;53.352;-6.356;2024-03-23T14:45:22;10.50;99.90
35531;DHT22;21637;53.352;-6.356;2024-03-23T14:47:49;10.40;99.90
35531;DHT22;21637;53.352;-6.356;2024-03-23T14:50:15;10.40;99.90
35531;DHT22;21637;53.352;-6.356;2024-03-23T14:52:47;10.40;99.90
35531;DHT22;21637;53.352;-6.356;2024-03-23T14:55:13;10.30;99.90
35531;DHT22;21637;53.352;-6.356;2024-03-23T14:57:39;10.10;99.90
35531;DHT22;21637;53.352;-6.356;2024-03-23T15:00:09;10.00;99.90
35531;DHT22;21637;53.352;-6.356;2024-03-23T15:02:39;9.90;99.90
35531;DHT22;21637;53.352;-6.356;2024-03-23T15:05:05;9.80;99.90
35531;DHT22;21637;53.352;-6.356;2024-03-23T15:07:35;9.80;99.90
35531;DHT22;21637;53.352;-6.356;2024-03-23T15:10:02;9.70;99.90
35531;DHT22;21637;53.352;-6.356;2024-03-23T15:12:30;9.60;99.90
35531;DHT22;21637;53.352;-6.356;2024-03-23T15:14:58;9.60;99.90
35531;DHT22;21637;53.352;-6.356;2024-03-23T15:17:25;9.70;99.90
35531;DHT22;21637;53.352;-6.356;2024-03-23T15:19:50;9.90;99.90
35531;DHT22;21637;53.352;-6.356;2024-03-23T15:22:16;10.10;99.90
35531;DHT22;21637;53.352;-6.356;2024-03-23T15:24:42;10.30;99.90
35531;DHT22;21637;53.352;-6.356;2024-03-23T15:27:07;10.40;99.90
35531;DHT22;21637;53.352;-6.356;2024-03-23T15:29:34;10.50;99.90
35531;DHT22;21637;53.352;-6.356;2024-03-23T15:32:02;10.60;99.90
35531;DHT22;21637;53.352;-6.356;2024-03-23T15:34:29;10.80;99.90
35531;DHT22;21637;53.352;-6.356;2024-03-23T15:36:54;11.00;99.90
35531;DHT22;21637;53.352;-6.356;2024-03-23T15:39:20;11.20;99.90
35531;DHT22;21637;53.352;-6.356;2024-03-23T15:41:48;11.30;99.90
35531;DHT22;21637;53.352;-6.356;2024-03-23T15:44:14;11.40;99.90
35531;DHT22;21637;53.352;-6.356;2024-03-23T15:46:39;11.40;99.90
35531;DHT22;21637;53.352;-6.356;2024-03-23T15:49:06;11.20;99.90
35531;DHT22;21637;53.352;-6.356;2024-03-23T15:51:32;11.00;99.90
35531;DHT22;21637;53.352;-6.356;2024-03-23T15:54:02;10.90;99.90
35531;DHT22;21637;53.352;-6.356;2024-03-23T15:56:31;10.80;99.90
35531;DHT22;21637;53.352;-6.356;2024-03-23T15:58:56;10.60;99.90
35531;DHT22;21637;53.352;-6.356;2024-03-23T16:01:30;10.60;99.90
35531;DHT22;21637;53.352;-6.356;2024-03-23T16:03:59;10.70;99.90
35531;DHT22;21637;53.352;-6.356;2024-03-23T16:06:24;10.60;99.90
35531;DHT22;21637;53.352;-6.356;2024-03-23T16:08:50;10.60;99.90
35531;DHT22;21637;53.352;-6.356;2024-03-23T16:11:16;10.50;99.90
35531;DHT22;21637;53.352;-6.356;2024-03-23T16:13:41;10.50;99.90
35531;DHT22;21637;53.352;-6.356;2024-03-23T16:16:08;10.50;99.90
35531;DHT22;21637;53.352;-6.356;2024-03-23T16:18:36;10.50;99.90
35531;DHT22;21637;53.352;-6.356;2024-03-23T16:21:03;10.50;99.90
35531;DHT22;21637;53.352;-6.356;2024-03-23T16:23:33;10.50;99.90
35531;DHT22;21637;53.352;-6.356;2024-03-23T16:26:00;10.50;99.90
35531;DHT22;21637;53.352;-6.356;2024-03-23T16:28:34;10.40;99.90
35531;DHT22;21637;53.352;-6.356;2024-03-23T16:33:27;10.20;99.90
35531;DHT22;21637;53.352;-6.356;2024-03-23T16:36:00;10.20;99.90